FXMM/MSU METAR and TAF weather

Enter ICAO airport designator
Station Type Date Time Source
FXMM METAR 2018/04/21 10:00 UTC NOAA

FXMM 211000Z 32004KT 9999 SCT035 19/09 Q1023 NOSIG


Station Type Date Time Source
FXMM Decoded METAR 2018/04/21 10:00 UTC NOAA

Maseru / Moshoeshoe, Lesotho (FXMM) 29-27S 027-33E
Apr 21, 2018 - 06:00 AM EDT / 2018.04.21 1000 UTC
Wind: from the NW (320 degrees) at 5 MPH (4 KT):0
Visibility: greater than 7 mile(s):0
Sky conditions: partly cloudy
Temperature: 66 F (19 C)
Dew Point: 48 F (9 C)
Relative Humidity: 52%
Pressure (altimeter): 30.21 in. Hg (1023 hPa)
ob: FXMM 211000Z 32004KT 9999 SCT035 19/09 Q1023 NOSIG
cycle: 10

Station Type Date Time Source
FXMM TAF 2018/04/19 12:09 UTC NOAA

TAF TAF FXMM 190900Z 1912/2012 28005KT 9999 SCT035
BECMG 1918/1921 31005KT 8000 TSRA BKN035 FEW040CB
FM192400 00000KT CAVOK
BECMG 2007/2009 33010KT SCT035


Example: see airport list